sensor_id;sensor_type;location;lat;lon;timestamp;P1;durP1;ratioP1;P2;durP2;ratioP2
5965;SDS011;3009;43.224;27.976;2022-11-20T00:01:22;17.00;;;5.10;;
5965;SDS011;3009;43.224;27.976;2022-11-20T00:03:51;18.57;;;6.40;;
5965;SDS011;3009;43.224;27.976;2022-11-20T00:06:21;18.53;;;5.53;;
5965;SDS011;3009;43.224;27.976;2022-11-20T00:08:50;14.67;;;5.47;;
5965;SDS011;3009;43.224;27.976;2022-11-20T00:11:19;12.53;;;4.80;;
5965;SDS011;3009;43.224;27.976;2022-11-20T00:13:49;8.53;;;5.03;;
5965;SDS011;3009;43.224;27.976;2022-11-20T00:16:18;19.53;;;5.73;;
5965;SDS011;3009;43.224;27.976;2022-11-20T00:18:50;10.80;;;4.90;;
5965;SDS011;3009;43.224;27.976;2022-11-20T00:21:20;11.47;;;4.90;;
5965;SDS011;3009;43.224;27.976;2022-11-20T00:23:50;14.03;;;6.00;;
5965;SDS011;3009;43.224;27.976;2022-11-20T00:26:21;13.03;;;4.90;;
5965;SDS011;3009;43.224;27.976;2022-11-20T00:28:50;10.40;;;5.23;;
5965;SDS011;3009;43.224;27.976;2022-11-20T00:31:21;17.20;;;5.40;;
5965;SDS011;3009;43.224;27.976;2022-11-20T00:33:50;14.90;;;5.90;;
5965;SDS011;3009;43.224;27.976;2022-11-20T00:36:19;15.07;;;5.57;;
5965;SDS011;3009;43.224;27.976;2022-11-20T00:38:50;15.87;;;5.60;;
5965;SDS011;3009;43.224;27.976;2022-11-20T00:41:20;12.40;;;5.40;;
5965;SDS011;3009;43.224;27.976;2022-11-20T00:43:49;11.43;;;5.40;;
5965;SDS011;3009;43.224;27.976;2022-11-20T00:46:19;20.43;;;7.13;;
5965;SDS011;3009;43.224;27.976;2022-11-20T00:48:50;24.10;;;5.83;;
5965;SDS011;3009;43.224;27.976;2022-11-20T00:51:19;11.20;;;5.70;;
5965;SDS011;3009;43.224;27.976;2022-11-20T00:53:49;12.80;;;6.03;;
5965;SDS011;3009;43.224;27.976;2022-11-20T00:56:18;18.57;;;6.20;;
5965;SDS011;3009;43.224;27.976;2022-11-20T00:58:47;16.27;;;6.10;;
5965;SDS011;3009;43.224;27.976;2022-11-20T01:01:17;13.37;;;6.30;;
5965;SDS011;3009;43.224;27.976;2022-11-20T01:03:49;8.53;;;5.73;;
5965;SDS011;3009;43.224;27.976;2022-11-20T01:06:18;8.03;;;5.50;;
5965;SDS011;3009;43.224;27.976;2022-11-20T01:08:48;18.23;;;6.40;;
5965;SDS011;3009;43.224;27.976;2022-11-20T01:11:18;17.60;;;5.77;;
5965;SDS011;3009;43.224;27.976;2022-11-20T01:13:47;11.63;;;5.40;;
5965;SDS011;3009;43.224;27.976;2022-11-20T01:16:18;19.97;;;6.23;;
5965;SDS011;3009;43.224;27.976;2022-11-20T01:18:50;23.40;;;7.70;;
5965;SDS011;3009;43.224;27.976;2022-11-20T01:21:20;11.43;;;6.47;;
5965;SDS011;3009;43.224;27.976;2022-11-20T01:23:50;17.40;;;6.93;;
5965;SDS011;3009;43.224;27.976;2022-11-20T01:26:20;19.37;;;6.67;;
5965;SDS011;3009;43.224;27.976;2022-11-20T01:28:51;23.73;;;6.37;;
5965;SDS011;3009;43.224;27.976;2022-11-20T01:31:20;16.33;;;5.57;;
5965;SDS011;3009;43.224;27.976;2022-11-20T01:33:53;9.03;;;5.63;;
5965;SDS011;3009;43.224;27.976;2022-11-20T01:36:23;12.50;;;5.80;;
5965;SDS011;3009;43.224;27.976;2022-11-20T01:38:54;24.03;;;6.37;;
5965;SDS011;3009;43.224;27.976;2022-11-20T01:41:24;7.90;;;5.10;;
5965;SDS011;3009;43.224;27.976;2022-11-20T01:44:11;7.97;;;5.07;;
5965;SDS011;3009;43.224;27.976;2022-11-20T01:46:42;16.37;;;5.67;;
5965;SDS011;3009;43.224;27.976;2022-11-20T01:49:21;30.00;;;6.23;;
5965;SDS011;3009;43.224;27.976;2022-11-20T01:51:55;13.83;;;5.47;;
5965;SDS011;3009;43.224;27.976;2022-11-20T01:54:28;11.40;;;5.37;;
5965;SDS011;3009;43.224;27.976;2022-11-20T01:57:01;10.77;;;5.70;;
5965;SDS011;3009;43.224;27.976;2022-11-20T01:59:31;10.03;;;4.87;;
5965;SDS011;3009;43.224;27.976;2022-11-20T02:01:59;19.53;;;5.67;;
5965;SDS011;3009;43.224;27.976;2022-11-20T02:04:29;12.73;;;6.07;;
5965;SDS011;3009;43.224;27.976;2022-11-20T02:06:58;17.97;;;6.00;;
5965;SDS011;3009;43.224;27.976;2022-11-20T02:09:28;17.37;;;6.07;;
5965;SDS011;3009;43.224;27.976;2022-11-20T02:11:56;11.47;;;5.73;;
5965;SDS011;3009;43.224;27.976;2022-11-20T02:14:25;11.53;;;5.50;;
5965;SDS011;3009;43.224;27.976;2022-11-20T02:16:53;12.93;;;6.07;;
5965;SDS011;3009;43.224;27.976;2022-11-20T02:19:23;16.70;;;5.33;;
5965;SDS011;3009;43.224;27.976;2022-11-20T02:21:58;30.73;;;6.10;;
5965;SDS011;3009;43.224;27.976;2022-11-20T02:24:31;12.30;;;4.60;;
5965;SDS011;3009;43.224;27.976;2022-11-20T02:26:59;10.13;;;5.00;;
5965;SDS011;3009;43.224;27.976;2022-11-20T02:29:31;19.20;;;5.23;;
5965;SDS011;3009;43.224;27.976;2022-11-20T02:32:04;11.87;;;4.97;;
5965;SDS011;3009;43.224;27.976;2022-11-20T02:34:32;16.67;;;5.23;;
5965;SDS011;3009;43.224;27.976;2022-11-20T02:37:01;10.73;;;5.17;;
5965;SDS011;3009;43.224;27.976;2022-11-20T02:39:31;7.93;;;3.97;;
5965;SDS011;3009;43.224;27.976;2022-11-20T02:42:00;16.00;;;4.40;;
5965;SDS011;3009;43.224;27.976;2022-11-20T02:44:28;11.40;;;5.17;;
5965;SDS011;3009;43.224;27.976;2022-11-20T02:46:56;13.60;;;5.70;;
5965;SDS011;3009;43.224;27.976;2022-11-20T02:49:25;21.77;;;4.30;;
5965;SDS011;3009;43.224;27.976;2022-11-20T02:51:53;12.70;;;4.37;;
5965;SDS011;3009;43.224;27.976;2022-11-20T02:54:21;14.27;;;5.10;;
5965;SDS011;3009;43.224;27.976;2022-11-20T02:56:51;12.90;;;5.50;;
5965;SDS011;3009;43.224;27.976;2022-11-20T02:59:19;6.90;;;4.27;;
5965;SDS011;3009;43.224;27.976;2022-11-20T03:01:48;12.63;;;4.53;;
5965;SDS011;3009;43.224;27.976;2022-11-20T03:04:16;12.40;;;4.43;;
5965;SDS011;3009;43.224;27.976;2022-11-20T03:06:44;12.97;;;4.67;;
5965;SDS011;3009;43.224;27.976;2022-11-20T03:09:12;11.93;;;5.43;;
5965;SDS011;3009;43.224;27.976;2022-11-20T03:11:40;12.37;;;5.60;;
5965;SDS011;3009;43.224;27.976;2022-11-20T03:14:10;14.00;;;4.10;;
5965;SDS011;3009;43.224;27.976;2022-11-20T03:16:38;13.77;;;4.63;;
5965;SDS011;3009;43.224;27.976;2022-11-20T03:19:06;13.17;;;5.07;;
5965;SDS011;3009;43.224;27.976;2022-11-20T03:21:34;12.10;;;4.90;;
5965;SDS011;3009;43.224;27.976;2022-11-20T03:24:03;13.23;;;4.60;;
5965;SDS011;3009;43.224;27.976;2022-11-20T03:26:31;15.93;;;4.47;;
5965;SDS011;3009;43.224;27.976;2022-11-20T03:29:00;14.10;;;4.40;;
5965;SDS011;3009;43.224;27.976;2022-11-20T03:31:33;13.77;;;4.40;;
5965;SDS011;3009;43.224;27.976;2022-11-20T03:34:03;9.30;;;4.37;;
5965;SDS011;3009;43.224;27.976;2022-11-20T03:36:32;11.97;;;5.03;;
5965;SDS011;3009;43.224;27.976;2022-11-20T03:39:00;19.33;;;5.60;;
5965;SDS011;3009;43.224;27.976;2022-11-20T03:41:29;7.20;;;4.70;;
5965;SDS011;3009;43.224;27.976;2022-11-20T03:43:59;23.07;;;7.03;;
5965;SDS011;3009;43.224;27.976;2022-11-20T03:46:29;18.27;;;5.13;;
5965;SDS011;3009;43.224;27.976;2022-11-20T03:48:59;8.70;;;4.90;;
5965;SDS011;3009;43.224;27.976;2022-11-20T03:51:28;14.27;;;4.70;;
5965;SDS011;3009;43.224;27.976;2022-11-20T03:53:57;11.77;;;4.90;;
5965;SDS011;3009;43.224;27.976;2022-11-20T03:56:27;14.30;;;4.90;;
5965;SDS011;3009;43.224;27.976;2022-11-20T03:58:56;14.60;;;5.23;;
5965;SDS011;3009;43.224;27.976;2022-11-20T04:01:26;10.10;;;4.37;;
5965;SDS011;3009;43.224;27.976;2022-11-20T04:03:55;18.83;;;4.90;;
5965;SDS011;3009;43.224;27.976;2022-11-20T04:06:26;9.37;;;4.50;;
5965;SDS011;3009;43.224;27.976;2022-11-20T04:08:56;10.50;;;5.20;;
5965;SDS011;3009;43.224;27.976;2022-11-20T04:11:26;7.97;;;4.70;;
5965;SDS011;3009;43.224;27.976;2022-11-20T04:13:55;9.10;;;4.63;;
5965;SDS011;3009;43.224;27.976;2022-11-20T04:16:25;11.20;;;4.93;;
5965;SDS011;3009;43.224;27.976;2022-11-20T04:18:56;15.13;;;5.00;;
5965;SDS011;3009;43.224;27.976;2022-11-20T04:21:27;11.80;;;6.07;;
5965;SDS011;3009;43.224;27.976;2022-11-20T04:23:55;11.33;;;4.80;;
5965;SDS011;3009;43.224;27.976;2022-11-20T04:26:26;29.17;;;6.40;;
5965;SDS011;3009;43.224;27.976;2022-11-20T04:28:55;17.77;;;5.50;;
5965;SDS011;3009;43.224;27.976;2022-11-20T04:31:25;16.00;;;6.40;;
5965;SDS011;3009;43.224;27.976;2022-11-20T04:33:55;21.30;;;6.57;;
5965;SDS011;3009;43.224;27.976;2022-11-20T04:36:28;19.57;;;6.40;;
5965;SDS011;3009;43.224;27.976;2022-11-20T04:38:57;16.67;;;6.27;;
5965;SDS011;3009;43.224;27.976;2022-11-20T04:41:27;9.77;;;5.27;;
5965;SDS011;3009;43.224;27.976;2022-11-20T04:43:57;14.90;;;4.60;;
5965;SDS011;3009;43.224;27.976;2022-11-20T04:46:29;12.20;;;5.40;;
5965;SDS011;3009;43.224;27.976;2022-11-20T04:48:58;12.53;;;4.63;;
5965;SDS011;3009;43.224;27.976;2022-11-20T04:51:28;18.47;;;5.60;;
5965;SDS011;3009;43.224;27.976;2022-11-20T04:53:56;11.83;;;4.07;;
5965;SDS011;3009;43.224;27.976;2022-11-20T04:56:24;21.60;;;5.53;;
5965;SDS011;3009;43.224;27.976;2022-11-20T04:58:52;10.37;;;4.50;;
5965;SDS011;3009;43.224;27.976;2022-11-20T05:01:21;8.17;;;4.87;;
5965;SDS011;3009;43.224;27.976;2022-11-20T05:03:51;26.87;;;5.90;;
5965;SDS011;3009;43.224;27.976;2022-11-20T05:06:20;23.37;;;5.40;;
5965;SDS011;3009;43.224;27.976;2022-11-20T05:08:50;11.00;;;4.27;;
5965;SDS011;3009;43.224;27.976;2022-11-20T05:11:19;11.27;;;5.20;;
5965;SDS011;3009;43.224;27.976;2022-11-20T05:13:48;6.10;;;4.00;;
5965;SDS011;3009;43.224;27.976;2022-11-20T05:16:17;8.90;;;3.83;;
5965;SDS011;3009;43.224;27.976;2022-11-20T05:18:47;15.03;;;4.60;;
5965;SDS011;3009;43.224;27.976;2022-11-20T05:21:16;27.27;;;5.60;;
5965;SDS011;3009;43.224;27.976;2022-11-20T05:23:45;27.63;;;6.00;;
5965;SDS011;3009;43.224;27.976;2022-11-20T05:26:15;16.27;;;4.80;;
5965;SDS011;3009;43.224;27.976;2022-11-20T05:28:45;18.37;;;4.10;;
5965;SDS011;3009;43.224;27.976;2022-11-20T05:31:14;16.40;;;3.73;;
5965;SDS011;3009;43.224;27.976;2022-11-20T05:33:51;10.37;;;4.50;;
5965;SDS011;3009;43.224;27.976;2022-11-20T05:36:19;15.80;;;4.37;;
5965;SDS011;3009;43.224;27.976;2022-11-20T05:38:48;14.03;;;4.20;;
5965;SDS011;3009;43.224;27.976;2022-11-20T05:41:19;12.90;;;3.77;;
5965;SDS011;3009;43.224;27.976;2022-11-20T05:43:48;11.50;;;3.37;;
5965;SDS011;3009;43.224;27.976;2022-11-20T05:46:19;14.87;;;3.87;;
5965;SDS011;3009;43.224;27.976;2022-11-20T05:48:54;7.70;;;3.73;;
5965;SDS011;3009;43.224;27.976;2022-11-20T05:51:23;15.73;;;3.70;;
5965;SDS011;3009;43.224;27.976;2022-11-20T05:53:52;15.13;;;4.70;;
5965;SDS011;3009;43.224;27.976;2022-11-20T05:56:21;13.43;;;4.57;;
5965;SDS011;3009;43.224;27.976;2022-11-20T05:58:49;14.20;;;4.13;;
5965;SDS011;3009;43.224;27.976;2022-11-20T06:01:18;15.10;;;4.77;;
5965;SDS011;3009;43.224;27.976;2022-11-20T06:03:48;14.27;;;3.93;;
5965;SDS011;3009;43.224;27.976;2022-11-20T06:06:18;14.77;;;4.30;;
5965;SDS011;3009;43.224;27.976;2022-11-20T06:08:47;20.43;;;4.00;;
5965;SDS011;3009;43.224;27.976;2022-11-20T06:11:15;19.73;;;4.40;;
5965;SDS011;3009;43.224;27.976;2022-11-20T06:13:45;12.87;;;3.60;;
5965;SDS011;3009;43.224;27.976;2022-11-20T06:16:15;12.03;;;3.80;;
5965;SDS011;3009;43.224;27.976;2022-11-20T06:18:45;10.10;;;3.60;;
5965;SDS011;3009;43.224;27.976;2022-11-20T06:21:14;6.97;;;3.30;;
5965;SDS011;3009;43.224;27.976;2022-11-20T06:23:43;12.10;;;3.37;;
5965;SDS011;3009;43.224;27.976;2022-11-20T06:26:12;14.00;;;3.97;;
5965;SDS011;3009;43.224;27.976;2022-11-20T06:28:42;7.73;;;3.40;;
5965;SDS011;3009;43.224;27.976;2022-11-20T06:31:13;12.43;;;5.03;;
5965;SDS011;3009;43.224;27.976;2022-11-20T06:33:42;12.50;;;3.33;;
5965;SDS011;3009;43.224;27.976;2022-11-20T06:36:11;10.97;;;3.77;;
5965;SDS011;3009;43.224;27.976;2022-11-20T06:38:41;12.00;;;3.80;;
5965;SDS011;3009;43.224;27.976;2022-11-20T06:41:10;16.47;;;4.40;;
5965;SDS011;3009;43.224;27.976;2022-11-20T06:43:40;8.83;;;3.80;;
5965;SDS011;3009;43.224;27.976;2022-11-20T06:46:09;16.97;;;4.20;;
5965;SDS011;3009;43.224;27.976;2022-11-20T06:48:39;11.50;;;3.83;;
5965;SDS011;3009;43.224;27.976;2022-11-20T06:51:08;12.33;;;4.13;;
5965;SDS011;3009;43.224;27.976;2022-11-20T06:53:36;20.67;;;5.23;;
5965;SDS011;3009;43.224;27.976;2022-11-20T06:56:05;10.17;;;4.10;;
5965;SDS011;3009;43.224;27.976;2022-11-20T06:58:34;19.83;;;4.23;;
5965;SDS011;3009;43.224;27.976;2022-11-20T07:01:04;11.03;;;4.67;;
5965;SDS011;3009;43.224;27.976;2022-11-20T07:03:34;11.23;;;4.30;;
5965;SDS011;3009;43.224;27.976;2022-11-20T07:06:04;13.37;;;3.77;;
5965;SDS011;3009;43.224;27.976;2022-11-20T07:08:32;26.00;;;5.20;;
5965;SDS011;3009;43.224;27.976;2022-11-20T07:11:02;14.17;;;3.83;;
5965;SDS011;3009;43.224;27.976;2022-11-20T07:13:32;14.70;;;4.60;;
5965;SDS011;3009;43.224;27.976;2022-11-20T07:16:01;14.83;;;4.60;;
5965;SDS011;3009;43.224;27.976;2022-11-20T07:18:30;18.17;;;5.83;;
5965;SDS011;3009;43.224;27.976;2022-11-20T07:20:59;22.17;;;5.70;;
5965;SDS011;3009;43.224;27.976;2022-11-20T07:23:29;13.60;;;4.60;;
5965;SDS011;3009;43.224;27.976;2022-11-20T07:25:58;14.83;;;4.60;;
5965;SDS011;3009;43.224;27.976;2022-11-20T07:28:30;13.63;;;4.50;;
5965;SDS011;3009;43.224;27.976;2022-11-20T07:30:59;17.73;;;5.70;;
5965;SDS011;3009;43.224;27.976;2022-11-20T07:33:27;19.50;;;4.70;;
5965;SDS011;3009;43.224;27.976;2022-11-20T07:35:55;25.27;;;4.50;;
5965;SDS011;3009;43.224;27.976;2022-11-20T07:38:26;20.63;;;4.20;;
5965;SDS011;3009;43.224;27.976;2022-11-20T07:40:56;18.67;;;4.80;;
5965;SDS011;3009;43.224;27.976;2022-11-20T07:43:27;19.53;;;5.43;;
5965;SDS011;3009;43.224;27.976;2022-11-20T07:45:56;17.80;;;4.63;;
5965;SDS011;3009;43.224;27.976;2022-11-20T07:48:24;17.33;;;4.90;;
5965;SDS011;3009;43.224;27.976;2022-11-20T07:50:53;31.70;;;5.43;;
5965;SDS011;3009;43.224;27.976;2022-11-20T07:53:22;23.60;;;5.40;;
5965;SDS011;3009;43.224;27.976;2022-11-20T07:55:50;16.30;;;4.27;;
5965;SDS011;3009;43.224;27.976;2022-11-20T07:58:20;16.30;;;4.20;;
5965;SDS011;3009;43.224;27.976;2022-11-20T08:00:49;27.03;;;4.87;;
5965;SDS011;3009;43.224;27.976;2022-11-20T08:03:17;7.87;;;4.10;;
5965;SDS011;3009;43.224;27.976;2022-11-20T08:05:50;12.53;;;4.33;;
5965;SDS011;3009;43.224;27.976;2022-11-20T08:08:19;17.73;;;5.43;;
5965;SDS011;3009;43.224;27.976;2022-11-20T08:10:48;14.00;;;5.07;;
5965;SDS011;3009;43.224;27.976;2022-11-20T08:13:16;23.47;;;5.10;;
5965;SDS011;3009;43.224;27.976;2022-11-20T08:16:04;12.03;;;4.30;;
5965;SDS011;3009;43.224;27.976;2022-11-20T08:18:32;14.23;;;4.70;;
5965;SDS011;3009;43.224;27.976;2022-11-20T08:21:01;18.10;;;6.37;;
5965;SDS011;3009;43.224;27.976;2022-11-20T08:23:31;20.50;;;4.73;;
5965;SDS011;3009;43.224;27.976;2022-11-20T08:25:59;18.60;;;4.60;;
5965;SDS011;3009;43.224;27.976;2022-11-20T08:28:27;19.63;;;4.93;;
5965;SDS011;3009;43.224;27.976;2022-11-20T08:30:57;20.00;;;5.73;;
5965;SDS011;3009;43.224;27.976;2022-11-20T08:33:27;18.47;;;3.97;;
5965;SDS011;3009;43.224;27.976;2022-11-20T08:35:58;9.70;;;4.57;;
5965;SDS011;3009;43.224;27.976;2022-11-20T08:38:27;22.50;;;6.00;;
5965;SDS011;3009;43.224;27.976;2022-11-20T08:40:56;17.20;;;5.70;;
5965;SDS011;3009;43.224;27.976;2022-11-20T08:43:42;15.80;;;5.33;;
5965;SDS011;3009;43.224;27.976;2022-11-20T08:46:10;7.30;;;4.70;;
5965;SDS011;3009;43.224;27.976;2022-11-20T08:48:40;15.53;;;4.60;;
5965;SDS011;3009;43.224;27.976;2022-11-20T08:51:08;7.47;;;4.47;;
5965;SDS011;3009;43.224;27.976;2022-11-20T08:53:37;38.80;;;6.60;;
5965;SDS011;3009;43.224;27.976;2022-11-20T08:56:06;18.57;;;5.50;;
5965;SDS011;3009;43.224;27.976;2022-11-20T08:58:36;14.83;;;5.30;;
5965;SDS011;3009;43.224;27.976;2022-11-20T09:01:24;14.63;;;5.40;;
5965;SDS011;3009;43.224;27.976;2022-11-20T09:03:56;17.50;;;5.60;;
5965;SDS011;3009;43.224;27.976;2022-11-20T09:06:24;21.30;;;5.47;;
5965;SDS011;3009;43.224;27.976;2022-11-20T09:08:52;30.07;;;6.60;;
5965;SDS011;3009;43.224;27.976;2022-11-20T09:11:20;17.93;;;4.93;;
5965;SDS011;3009;43.224;27.976;2022-11-20T09:13:50;15.03;;;5.33;;
5965;SDS011;3009;43.224;27.976;2022-11-20T09:16:18;16.77;;;4.70;;
5965;SDS011;3009;43.224;27.976;2022-11-20T09:18:49;11.40;;;4.50;;
5965;SDS011;3009;43.224;27.976;2022-11-20T09:21:39;14.60;;;4.77;;
5965;SDS011;3009;43.224;27.976;2022-11-20T09:24:07;14.30;;;4.83;;
5965;SDS011;3009;43.224;27.976;2022-11-20T09:26:36;36.17;;;6.10;;
5965;SDS011;3009;43.224;27.976;2022-11-20T09:29:04;25.77;;;5.30;;
5965;SDS011;3009;43.224;27.976;2022-11-20T09:31:32;12.50;;;4.90;;
5965;SDS011;3009;43.224;27.976;2022-11-20T09:34:00;23.13;;;5.80;;
5965;SDS011;3009;43.224;27.976;2022-11-20T09:36:28;7.53;;;4.10;;
5965;SDS011;3009;43.224;27.976;2022-11-20T09:38:58;13.03;;;5.20;;
5965;SDS011;3009;43.224;27.976;2022-11-20T09:41:33;15.83;;;5.30;;
5965;SDS011;3009;43.224;27.976;2022-11-20T09:44:15;26.83;;;5.83;;
5965;SDS011;3009;43.224;27.976;2022-11-20T09:46:55;14.93;;;5.17;;
5965;SDS011;3009;43.224;27.976;2022-11-20T09:49:31;18.23;;;5.13;;
5965;SDS011;3009;43.224;27.976;2022-11-20T09:52:13;21.47;;;4.87;;
5965;SDS011;3009;43.224;27.976;2022-11-20T09:54:51;12.93;;;4.23;;
5965;SDS011;3009;43.224;27.976;2022-11-20T09:57:21;12.73;;;4.03;;
5965;SDS011;3009;43.224;27.976;2022-11-20T09:59:53;14.33;;;4.87;;
5965;SDS011;3009;43.224;27.976;2022-11-20T10:02:26;21.27;;;4.90;;
5965;SDS011;3009;43.224;27.976;2022-11-20T10:04:59;11.20;;;3.93;;
5965;SDS011;3009;43.224;27.976;2022-11-20T10:07:36;21.13;;;4.50;;
5965;SDS011;3009;43.224;27.976;2022-11-20T10:10:14;12.57;;;4.80;;
5965;SDS011;3009;43.224;27.976;2022-11-20T10:12:49;13.97;;;4.33;;
5965;SDS011;3009;43.224;27.976;2022-11-20T10:15:33;19.70;;;5.17;;
5965;SDS011;3009;43.224;27.976;2022-11-20T10:18:12;20.43;;;5.07;;
5965;SDS011;3009;43.224;27.976;2022-11-20T10:20:53;10.10;;;4.97;;
5965;SDS011;3009;43.224;27.976;2022-11-20T10:23:35;16.77;;;5.83;;
5965;SDS011;3009;43.224;27.976;2022-11-20T10:26:25;25.73;;;5.30;;
5965;SDS011;3009;43.224;27.976;2022-11-20T10:29:07;17.23;;;4.80;;
5965;SDS011;3009;43.224;27.976;2022-11-20T10:31:39;15.40;;;5.63;;
5965;SDS011;3009;43.224;27.976;2022-11-20T10:34:14;19.37;;;5.33;;
5965;SDS011;3009;43.224;27.976;2022-11-20T10:36:51;13.27;;;4.13;;
5965;SDS011;3009;43.224;27.976;2022-11-20T10:39:25;14.10;;;4.60;;
5965;SDS011;3009;43.224;27.976;2022-11-20T10:42:01;20.57;;;4.83;;
5965;SDS011;3009;43.224;27.976;2022-11-20T10:44:32;15.20;;;4.47;;
5965;SDS011;3009;43.224;27.976;2022-11-20T10:47:22;15.63;;;4.87;;
5965;SDS011;3009;43.224;27.976;2022-11-20T10:49:51;12.30;;;4.57;;
5965;SDS011;3009;43.224;27.976;2022-11-20T10:52:23;14.63;;;5.07;;
5965;SDS011;3009;43.224;27.976;2022-11-20T10:55:02;13.77;;;5.43;;
5965;SDS011;3009;43.224;27.976;2022-11-20T10:57:45;23.70;;;5.50;;
5965;SDS011;3009;43.224;27.976;2022-11-20T11:00:20;19.40;;;4.50;;
5965;SDS011;3009;43.224;27.976;2022-11-20T11:02:49;8.33;;;4.27;;
5965;SDS011;3009;43.224;27.976;2022-11-20T11:05:23;7.70;;;4.37;;
5965;SDS011;3009;43.224;27.976;2022-11-20T11:07:58;14.37;;;4.60;;
5965;SDS011;3009;43.224;27.976;2022-11-20T11:10:28;13.10;;;4.77;;
5965;SDS011;3009;43.224;27.976;2022-11-20T11:13:06;16.27;;;5.60;;
5965;SDS011;3009;43.224;27.976;2022-11-20T11:15:37;11.20;;;4.40;;
5965;SDS011;3009;43.224;27.976;2022-11-20T11:18:08;27.33;;;5.47;;
5965;SDS011;3009;43.224;27.976;2022-11-20T11:20:37;15.97;;;4.80;;
5965;SDS011;3009;43.224;27.976;2022-11-20T11:23:10;18.30;;;5.20;;
5965;SDS011;3009;43.224;27.976;2022-11-20T11:25:56;25.73;;;5.70;;
5965;SDS011;3009;43.224;27.976;2022-11-20T11:28:27;22.10;;;5.07;;
5965;SDS011;3009;43.224;27.976;2022-11-20T11:30:55;22.63;;;5.73;;
5965;SDS011;3009;43.224;27.976;2022-11-20T11:33:24;17.93;;;4.80;;
5965;SDS011;3009;43.224;27.976;2022-11-20T11:35:53;18.17;;;5.50;;
5965;SDS011;3009;43.224;27.976;2022-11-20T11:38:28;20.23;;;5.20;;
5965;SDS011;3009;43.224;27.976;2022-11-20T11:40:58;21.43;;;5.27;;
5965;SDS011;3009;43.224;27.976;2022-11-20T11:43:28;14.20;;;5.60;;
5965;SDS011;3009;43.224;27.976;2022-11-20T11:46:30;21.63;;;5.57;;
5965;SDS011;3009;43.224;27.976;2022-11-20T11:49:01;21.20;;;6.07;;
5965;SDS011;3009;43.224;27.976;2022-11-20T11:51:52;8.93;;;4.40;;
5965;SDS011;3009;43.224;27.976;2022-11-20T11:54:34;24.80;;;5.50;;
5965;SDS011;3009;43.224;27.976;2022-11-20T11:57:10;23.43;;;4.93;;
5965;SDS011;3009;43.224;27.976;2022-11-20T11:59:54;21.97;;;5.43;;
5965;SDS011;3009;43.224;27.976;2022-11-20T12:02:35;16.20;;;4.80;;
5965;SDS011;3009;43.224;27.976;2022-11-20T12:05:10;19.10;;;4.70;;
5965;SDS011;3009;43.224;27.976;2022-11-20T12:07:47;18.33;;;5.30;;
5965;SDS011;3009;43.224;27.976;2022-11-20T12:10:22;9.50;;;5.87;;
5965;SDS011;3009;43.224;27.976;2022-11-20T12:12:58;15.90;;;5.50;;
5965;SDS011;3009;43.224;27.976;2022-11-20T12:15:34;22.73;;;5.97;;
5965;SDS011;3009;43.224;27.976;2022-11-20T12:18:04;18.13;;;5.90;;
5965;SDS011;3009;43.224;27.976;2022-11-20T12:20:41;20.87;;;5.57;;
5965;SDS011;3009;43.224;27.976;2022-11-20T12:23:20;19.07;;;5.00;;
5965;SDS011;3009;43.224;27.976;2022-11-20T12:25:56;21.20;;;4.97;;
5965;SDS011;3009;43.224;27.976;2022-11-20T12:28:36;25.87;;;8.37;;
5965;SDS011;3009;43.224;27.976;2022-11-20T12:31:27;21.17;;;6.43;;
5965;SDS011;3009;43.224;27.976;2022-11-20T12:34:17;27.30;;;7.87;;
5965;SDS011;3009;43.224;27.976;2022-11-20T12:36:56;14.73;;;5.93;;
5965;SDS011;3009;43.224;27.976;2022-11-20T12:39:32;17.53;;;6.00;;
5965;SDS011;3009;43.224;27.976;2022-11-20T12:42:12;25.03;;;6.50;;
5965;SDS011;3009;43.224;27.976;2022-11-20T12:45:21;36.77;;;6.70;;
5965;SDS011;3009;43.224;27.976;2022-11-20T12:48:12;30.20;;;6.90;;
5965;SDS011;3009;43.224;27.976;2022-11-20T12:50:55;27.83;;;6.57;;
5965;SDS011;3009;43.224;27.976;2022-11-20T12:53:43;19.40;;;5.80;;
5965;SDS011;3009;43.224;27.976;2022-11-20T12:56:22;29.37;;;7.10;;
5965;SDS011;3009;43.224;27.976;2022-11-20T12:58:59;23.27;;;6.80;;
5965;SDS011;3009;43.224;27.976;2022-11-20T13:01:38;28.47;;;6.97;;
5965;SDS011;3009;43.224;27.976;2022-11-20T13:04:19;21.93;;;7.00;;
5965;SDS011;3009;43.224;27.976;2022-11-20T13:07:05;32.37;;;5.90;;
5965;SDS011;3009;43.224;27.976;2022-11-20T13:09:40;17.27;;;5.43;;
5965;SDS011;3009;43.224;27.976;2022-11-20T13:12:13;19.57;;;5.80;;
5965;SDS011;3009;43.224;27.976;2022-11-20T13:14:50;26.90;;;6.10;;
5965;SDS011;3009;43.224;27.976;2022-11-20T13:17:24;16.60;;;5.20;;
5965;SDS011;3009;43.224;27.976;2022-11-20T13:20:04;21.53;;;6.00;;
5965;SDS011;3009;43.224;27.976;2022-11-20T13:22:42;26.17;;;6.43;;
5965;SDS011;3009;43.224;27.976;2022-11-20T13:25:21;26.83;;;6.20;;
5965;SDS011;3009;43.224;27.976;2022-11-20T13:27:50;35.03;;;7.60;;
5965;SDS011;3009;43.224;27.976;2022-11-20T13:30:20;38.57;;;7.30;;
5965;SDS011;3009;43.224;27.976;2022-11-20T13:32:53;32.63;;;6.67;;
5965;SDS011;3009;43.224;27.976;2022-11-20T13:35:28;30.47;;;6.50;;
5965;SDS011;3009;43.224;27.976;2022-11-20T13:38:08;22.37;;;6.27;;
5965;SDS011;3009;43.224;27.976;2022-11-20T13:40:38;23.93;;;5.73;;
5965;SDS011;3009;43.224;27.976;2022-11-20T13:43:27;24.90;;;7.43;;
5965;SDS011;3009;43.224;27.976;2022-11-20T13:46:02;20.70;;;5.90;;
5965;SDS011;3009;43.224;27.976;2022-11-20T13:48:32;16.07;;;5.67;;
5965;SDS011;3009;43.224;27.976;2022-11-20T13:51:14;26.90;;;7.27;;
5965;SDS011;3009;43.224;27.976;2022-11-20T13:53:58;25.80;;;6.93;;
5965;SDS011;3009;43.224;27.976;2022-11-20T13:56:47;18.90;;;6.17;;
5965;SDS011;3009;43.224;27.976;2022-11-20T13:59:33;30.57;;;6.53;;
5965;SDS011;3009;43.224;27.976;2022-11-20T14:02:11;23.63;;;6.03;;
5965;SDS011;3009;43.224;27.976;2022-11-20T14:04:44;26.03;;;6.87;;
5965;SDS011;3009;43.224;27.976;2022-11-20T14:07:16;30.73;;;7.20;;
5965;SDS011;3009;43.224;27.976;2022-11-20T14:09:49;24.10;;;6.73;;
5965;SDS011;3009;43.224;27.976;2022-11-20T14:12:19;24.80;;;6.90;;
5965;SDS011;3009;43.224;27.976;2022-11-20T14:14:50;25.60;;;6.40;;
5965;SDS011;3009;43.224;27.976;2022-11-20T14:17:20;23.93;;;6.77;;
5965;SDS011;3009;43.224;27.976;2022-11-20T14:19:52;19.90;;;6.10;;
5965;SDS011;3009;43.224;27.976;2022-11-20T14:22:25;34.67;;;6.40;;
5965;SDS011;3009;43.224;27.976;2022-11-20T14:25:01;29.90;;;6.70;;
5965;SDS011;3009;43.224;27.976;2022-11-20T14:27:32;30.90;;;5.77;;
5965;SDS011;3009;43.224;27.976;2022-11-20T14:30:02;43.03;;;6.97;;
5965;SDS011;3009;43.224;27.976;2022-11-20T14:32:31;26.67;;;6.97;;
5965;SDS011;3009;43.224;27.976;2022-11-20T14:35:03;22.57;;;6.83;;
5965;SDS011;3009;43.224;27.976;2022-11-20T14:37:38;33.30;;;6.60;;
5965;SDS011;3009;43.224;27.976;2022-11-20T14:40:22;41.80;;;7.97;;
5965;SDS011;3009;43.224;27.976;2022-11-20T14:42:52;27.33;;;8.70;;
5965;SDS011;3009;43.224;27.976;2022-11-20T14:45:20;29.87;;;8.90;;
5965;SDS011;3009;43.224;27.976;2022-11-20T14:47:50;23.27;;;9.13;;
5965;SDS011;3009;43.224;27.976;2022-11-20T14:50:21;28.33;;;8.03;;
5965;SDS011;3009;43.224;27.976;2022-11-20T14:52:53;33.00;;;7.70;;
5965;SDS011;3009;43.224;27.976;2022-11-20T14:55:26;41.97;;;7.40;;
5965;SDS011;3009;43.224;27.976;2022-11-20T14:57:57;35.70;;;8.77;;
5965;SDS011;3009;43.224;27.976;2022-11-20T15:00:26;42.17;;;8.40;;
5965;SDS011;3009;43.224;27.976;2022-11-20T15:02:55;34.03;;;7.67;;
5965;SDS011;3009;43.224;27.976;2022-11-20T15:05:24;34.30;;;7.20;;
5965;SDS011;3009;43.224;27.976;2022-11-20T15:08:05;32.13;;;8.70;;
5965;SDS011;3009;43.224;27.976;2022-11-20T15:10:36;29.43;;;6.60;;
5965;SDS011;3009;43.224;27.976;2022-11-20T15:13:06;29.47;;;7.63;;
5965;SDS011;3009;43.224;27.976;2022-11-20T15:15:42;30.47;;;8.27;;
5965;SDS011;3009;43.224;27.976;2022-11-20T15:18:14;25.90;;;7.23;;